Time;durP1;ratioP1;P1;durP2;ratioP2;P2;SDS_P1;SDS_P2;PMS_P1;PMS_P2;Temp;Humidity;BMP_temperature;BMP_pressure;BME280_temperature;BME280_humidity;BME280_pressure;Samples;Min_cycle;Max_cycle;Signal;HPM_P1;HPM_P2
2022/03/31 00:00:35;;;;;;;;;;;;;;;11.76;47.60;98990.78;6110672;23;6867;-77
2022/03/31 00:03:05;;;;;;;;;;;;;;;11.74;47.55;98984.75;6112859;23;6790;-77
2022/03/31 00:05:32;;;;;;;;;;;;;;;11.74;47.29;98986.50;6112367;23;7005;-77
2022/03/31 00:08:03;;;;;;;;;;;;;;;11.75;47.96;98988.22;6111249;23;6783;-77
2022/03/31 00:10:37;;;;;;;;;;;;;;;11.74;47.72;98984.75;6108835;23;7051;-77
2022/03/31 00:13:08;;;;;;;;;;;;;;;11.75;47.69;98986.50;6111956;23;7867;-77
2022/03/31 00:15:34;;;;;;;;;;;;;;;11.77;47.92;98991.66;6109921;23;6787;-77
2022/03/31 00:18:02;;;;;;;;;;;;;;;11.78;47.75;98985.69;6112041;23;7022;-77
2022/03/31 00:20:28;;;;;;;;;;;;;;;11.80;47.87;98981.47;6111717;23;6900;-77
2022/03/31 00:22:55;;;;;;;;;;;;;;;11.79;47.93;98980.59;6111761;23;7029;-77
2022/03/31 00:25:22;;;;;;;;;;;;;;;11.80;47.71;98978.88;6110297;23;7212;-77
2022/03/31 00:27:48;;;;;;;;;;;;;;;11.80;47.44;98969.50;6111553;23;6956;-77
2022/03/31 00:30:14;;;;;;;;;;;;;;;11.81;47.53;98970.34;6111968;23;6870;-77
2022/03/31 00:32:41;;;;;;;;;;;;;;;11.80;47.55;98964.38;6111932;23;6952;-77
2022/03/31 00:35:10;;;;;;;;;;;;;;;11.85;47.66;98963.56;6110952;23;6982;-77
2022/03/31 00:37:36;;;;;;;;;;;;;;;11.86;47.53;98960.16;6111786;23;8370;-77
2022/03/31 00:40:04;;;;;;;;;;;;;;;11.88;47.58;98963.63;6111326;23;6873;-77
2022/03/31 00:42:31;;;;;;;;;;;;;;;11.88;47.65;98956.81;6109119;23;6786;-77
2022/03/31 00:44:57;;;;;;;;;;;;;;;11.88;47.40;98959.38;6111901;23;6874;-77
2022/03/31 00:47:23;;;;;;;;;;;;;;;11.88;47.66;98961.94;6112113;23;6958;-77
2022/03/31 00:49:49;;;;;;;;;;;;;;;11.88;47.34;98963.63;6112412;23;6810;-77
2022/03/31 00:52:15;;;;;;;;;;;;;;;11.85;47.96;98950.75;6113030;23;6782;-77
2022/03/31 00:54:42;;;;;;;;;;;;;;;11.85;48.04;98955.88;6063249;23;6943;-77
2022/03/31 00:57:11;;;;;;;;;;;;;;;11.84;48.16;98949.03;6109263;23;6787;-77
2022/03/31 00:59:37;;;;;;;;;;;;;;;11.83;48.06;98943.03;6112185;23;6794;-77
2022/03/31 01:02:03;;;;;;;;;;;;;;;11.84;48.06;98954.16;6131080;23;7167;-77
2022/03/31 01:04:30;;;;;;;;;;;;;;;11.80;47.87;98942.94;6111962;23;6907;-76
2022/03/31 01:06:56;;;;;;;;;;;;;;;11.78;47.77;98950.66;6112718;23;7119;-76
2022/03/31 01:09:22;;;;;;;;;;;;;;;11.76;47.64;98946.31;6110656;23;6998;-76
2022/03/31 01:11:48;;;;;;;;;;;;;;;11.73;47.94;98943.66;6107171;23;6779;-76
2022/03/31 01:14:15;;;;;;;;;;;;;;;11.70;48.25;98939.34;6110328;23;6853;-76
2022/03/31 01:16:41;;;;;;;;;;;;;;;11.66;48.24;98933.28;6109456;23;6991;-76
2022/03/31 01:19:10;;;;;;;;;;;;;;;11.63;48.27;98937.50;6085840;23;6972;-76
2022/03/31 01:21:43;;;;;;;;;;;;;;;11.58;48.22;98926.25;6132443;23;6786;-76
2022/03/31 01:24:13;;;;;;;;;;;;;;;11.51;48.46;98928.72;6109980;23;6783;-77
2022/03/31 01:26:40;;;;;;;;;;;;;;;11.47;48.47;98929.47;6112352;23;7122;-77
2022/03/31 01:29:08;;;;;;;;;;;;;;;11.44;48.69;98926.84;6109938;23;7154;-77
2022/03/31 01:31:37;;;;;;;;;;;;;;;11.42;48.82;98925.06;6111170;23;6782;-77
2022/03/31 01:34:03;;;;;;;;;;;;;;;11.41;49.20;98921.66;6111430;23;8132;-77
2022/03/31 01:36:29;;;;;;;;;;;;;;;11.39;49.08;98915.63;6110762;23;6871;-77
2022/03/31 01:38:55;;;;;;;;;;;;;;;11.40;48.85;98917.38;6085467;23;6984;-77
2022/03/31 01:41:22;;;;;;;;;;;;;;;11.39;49.09;98918.19;6084276;23;7278;-76
2022/03/31 01:43:48;;;;;;;;;;;;;;;11.37;49.22;98917.28;6110300;23;7196;-77
2022/03/31 01:46:14;;;;;;;;;;;;;;;11.33;49.16;98912.94;6107900;23;6991;-77
2022/03/31 01:48:40;;;;;;;;;;;;;;;11.30;48.89;98911.16;6110990;23;6955;-77
2022/03/31 01:51:05;;;;;;;;;;;;;;;11.29;49.54;98912.00;6107390;23;6815;-77
2022/03/31 01:53:36;;;;;;;;;;;;;;;11.27;49.84;98908.53;6110490;23;7113;-76
2022/03/31 01:56:03;;;;;;;;;;;;;;;11.27;49.27;98905.09;6111253;23;6951;-76
2022/03/31 01:58:28;;;;;;;;;;;;;;;11.25;49.56;98908.50;6087860;23;6786;-76
2022/03/31 02:00:54;;;;;;;;;;;;;;;11.25;49.68;98899.94;6109774;23;6771;-76
2022/03/31 02:03:22;;;;;;;;;;;;;;;11.24;49.59;98901.66;6115257;23;6783;-76
2022/03/31 02:05:48;;;;;;;;;;;;;;;11.21;50.29;98891.34;6090813;23;6786;-77
2022/03/31 02:08:14;;;;;;;;;;;;;;;11.22;50.19;98895.63;6115397;23;6771;-77
2022/03/31 02:10:39;;;;;;;;;;;;;;;11.21;50.10;98893.91;6138374;23;6994;-77
2022/03/31 02:13:07;;;;;;;;;;;;;;;11.22;50.26;98897.31;6090269;23;7040;-77
2022/03/31 02:15:34;;;;;;;;;;;;;;;11.20;50.34;98896.41;6115552;23;6945;-77
2022/03/31 02:18:03;;;;;;;;;;;;;;;11.16;50.38;98894.63;6142087;23;6782;-75
2022/03/31 02:20:31;;;;;;;;;;;;;;;11.12;50.16;98891.13;6116256;23;6918;-75
2022/03/31 02:23:00;;;;;;;;;;;;;;;11.07;50.90;98887.59;6117266;23;6790;-75
2022/03/31 02:25:26;;;;;;;;;;;;;;;11.05;50.68;98889.25;6140733;23;6787;-75
2022/03/31 02:27:53;;;;;;;;;;;;;;;11.03;51.11;98878.97;6093051;23;7808;-75
2022/03/31 02:30:21;;;;;;;;;;;;;;;11.02;51.03;98878.94;6118304;23;6950;-75
2022/03/31 02:32:47;;;;;;;;;;;;;;;11.00;51.26;98875.47;6093291;23;7096;-75
2022/03/31 02:35:13;;;;;;;;;;;;;;;10.98;51.23;98884.00;6117809;23;7119;-75
2022/03/31 02:37:39;;;;;;;;;;;;;;;10.96;51.49;98880.53;6118010;23;7937;-75
2022/03/31 02:40:06;;;;;;;;;;;;;;;10.95;51.43;98878.81;6115513;23;7113;-75
2022/03/31 02:42:35;;;;;;;;;;;;;;;10.91;51.58;98871.91;6113986;23;6882;-75
2022/03/31 02:45:05;;;;;;;;;;;;;;;10.90;51.88;98872.69;6117900;23;6989;-75
2022/03/31 02:47:34;;;;;;;;;;;;;;;10.87;52.29;98870.06;6116711;23;6965;-75
2022/03/31 02:50:01;;;;;;;;;;;;;;;10.82;52.18;98866.56;6117065;23;6957;-75
2022/03/31 02:55:24;;;;;;;;;;;;;;;10.76;51.91;98861.28;6115721;23;6952;-75
2022/03/31 02:55:24;;;;;;;;;;;;;;;10.70;52.49;98870.56;6119056;23;7027;-75
2022/03/31 02:57:51;;;;;;;;;;;;;;;10.64;52.86;98869.56;6117651;23;6798;-76
2022/03/31 03:00:18;;;;;;;;;;;;;;;10.59;52.79;98864.31;6116010;23;6862;-75
2022/03/31 03:02:43;;;;;;;;;;;;;;;10.58;52.58;98859.19;6113660;23;6871;-75
2022/03/31 03:05:09;;;;;;;;;;;;;;;10.55;53.18;98860.81;6113987;23;6845;-75
2022/03/31 03:07:35;;;;;;;;;;;;;;;10.53;52.76;98852.25;6113653;23;6774;-75
2022/03/31 03:10:00;;;;;;;;;;;;;;;10.54;53.56;98859.09;6084688;23;6905;-75
2022/03/31 03:12:26;;;;;;;;;;;;;;;10.56;53.29;98851.44;6110653;23;7006;-75
2022/03/31 03:14:52;;;;;;;;;;;;;;;10.57;53.73;98853.19;6111734;23;6910;-75
2022/03/31 03:17:18;;;;;;;;;;;;;;;10.60;53.61;98853.25;6088376;23;7138;-75
2022/03/31 03:19:44;;;;;;;;;;;;;;;10.60;53.48;98850.69;6113331;23;6791;-75
2022/03/31 03:22:10;;;;;;;;;;;;;;;10.61;53.37;98860.09;6109046;23;6962;-75
2022/03/31 03:24:35;;;;;;;;;;;;;;;10.64;53.71;98851.63;6111538;23;6919;-75
2022/03/31 03:27:01;;;;;;;;;;;;;;;10.64;53.60;98842.25;6111481;23;6971;-75
2022/03/31 03:29:27;;;;;;;;;;;;;;;10.64;53.52;98837.13;6107644;23;6774;-75
2022/03/31 03:31:53;;;;;;;;;;;;;;;10.63;53.67;98831.97;6113439;23;6786;-75
2022/03/31 03:34:19;;;;;;;;;;;;;;;10.63;54.09;98829.41;6086965;23;6948;-75
2022/03/31 03:36:45;;;;;;;;;;;;;;;10.63;53.72;98826.84;6113915;23;7062;-75
2022/03/31 03:39:11;;;;;;;;;;;;;;;10.65;53.72;98835.41;6110602;23;7147;-75
2022/03/31 03:41:38;;;;;;;;;;;;;;;10.63;54.20;98829.41;6109512;23;6782;-75
2022/03/31 03:44:04;;;;;;;;;;;;;;;10.64;54.41;98826.88;6112839;23;6949;-75
2022/03/31 03:46:30;;;;;;;;;;;;;;;10.63;54.27;98827.72;6112238;23;6786;-75
2022/03/31 03:48:56;;;;;;;;;;;;;;;10.64;54.26;98828.56;6113420;23;6790;-75
2022/03/31 03:51:24;;;;;;;;;;;;;;;10.65;53.95;98825.16;6085727;23;6932;-75
2022/03/31 03:53:53;;;;;;;;;;;;;;;10.65;54.67;98826.03;6112533;23;7058;-75
2022/03/31 03:56:20;;;;;;;;;;;;;;;10.65;54.51;98830.28;6111288;23;6950;-75
2022/03/31 03:58:45;;;;;;;;;;;;;;;10.64;53.96;98831.13;6086828;23;6951;-75
2022/03/31 04:01:11;;;;;;;;;;;;;;;10.63;54.25;98826.84;6112168;23;6771;-75
2022/03/31 04:03:37;;;;;;;;;;;;;;;10.60;54.53;98824.22;6110557;23;6920;-75
2022/03/31 04:06:03;;;;;;;;;;;;;;;10.54;54.18;98819.81;6110485;23;6950;-75
2022/03/31 04:08:28;;;;;;;;;;;;;;;10.51;54.47;98822.28;6108315;23;6838;-75
2022/03/31 04:10:54;;;;;;;;;;;;;;;10.50;54.99;98826.56;6111808;23;6897;-75
2022/03/31 04:13:20;;;;;;;;;;;;;;;10.47;54.10;98823.91;6111371;23;6774;-75
2022/03/31 04:15:46;;;;;;;;;;;;;;;10.44;55.08;98813.59;6112033;23;6838;-75
2022/03/31 04:18:12;;;;;;;;;;;;;;;10.42;54.96;98821.25;6110798;23;6841;-75
2022/03/31 04:20:38;;;;;;;;;;;;;;;10.40;54.35;98822.88;6063088;23;7304;-75
2022/03/31 04:23:05;;;;;;;;;;;;;;;10.40;55.12;98815.19;6110773;23;6949;-75
2022/03/31 04:25:31;;;;;;;;;;;;;;;10.40;54.57;98817.75;6112166;23;7178;-75
2022/03/31 04:27:58;;;;;;;;;;;;;;;10.40;55.18;98814.34;6111262;23;7017;-75
2022/03/31 04:30:23;;;;;;;;;;;;;;;10.40;54.83;98810.06;6111403;23;7031;-76
2022/03/31 04:32:51;;;;;;;;;;;;;;;10.42;55.46;98818.69;6110189;23;6808;-75
2022/03/31 04:35:18;;;;;;;;;;;;;;;10.40;55.08;98814.34;6113530;23;6783;-75
2022/03/31 04:37:44;;;;;;;;;;;;;;;10.36;54.89;98821.09;6109270;23;6955;-75
2022/03/31 04:40:11;;;;;;;;;;;;;;;10.33;55.17;98815.03;6112606;23;6783;-75
2022/03/31 04:42:37;;;;;;;;;;;;;;;10.31;55.41;98816.69;6111612;23;7165;-75
2022/03/31 04:45:06;;;;;;;;;;;;;;;10.29;54.87;98821.75;6087589;23;6965;-75
2022/03/31 04:47:31;;;;;;;;;;;;;;;10.28;55.26;98826.03;6111684;23;6905;-75
2022/03/31 04:49:58;;;;;;;;;;;;;;;10.30;55.14;98823.50;6113312;23;6898;-75
2022/03/31 04:52:24;;;;;;;;;;;;;;;10.33;55.97;98827.81;6137124;23;6790;-75
2022/03/31 04:54:50;;;;;;;;;;;;;;;10.32;55.38;98820.97;6112820;23;7081;-75
2022/03/31 04:57:18;;;;;;;;;;;;;;;10.32;55.62;98823.53;6089399;23;7627;-75
2022/03/31 04:59:45;;;;;;;;;;;;;;;10.32;55.18;98824.38;6109078;23;6778;-75
2022/03/31 05:02:12;;;;;;;;;;;;;;;10.34;55.55;98827.00;6108009;23;6851;-75
2022/03/31 05:04:39;;;;;;;;;;;;;;;10.35;55.33;98827.03;6114026;23;9519;-75
2022/03/31 05:07:05;;;;;;;;;;;;;;;10.36;55.53;98827.88;6136021;23;6926;-75
2022/03/31 05:09:32;;;;;;;;;;;;;;;10.35;55.83;98821.91;6113322;23;7170;-75
2022/03/31 05:11:57;;;;;;;;;;;;;;;10.33;55.26;98826.13;6112214;23;6970;-75
2022/03/31 05:14:23;;;;;;;;;;;;;;;10.33;55.44;98818.44;6111483;23;6978;-75
2022/03/31 05:16:49;;;;;;;;;;;;;;;10.32;54.93;98821.81;6111074;23;7102;-75
2022/03/31 05:19:15;;;;;;;;;;;;;;;10.28;55.51;98822.59;6087266;23;7055;-75
2022/03/31 05:21:41;;;;;;;;;;;;;;;10.22;55.51;98819.88;6111017;23;6993;-75
2022/03/31 05:24:06;;;;;;;;;;;;;;;10.17;55.53;98816.34;6114413;23;6909;-75
2022/03/31 05:26:32;;;;;;;;;;;;;;;10.13;55.93;98823.94;6112314;23;7603;-75
2022/03/31 05:28:58;;;;;;;;;;;;;;;10.12;55.91;98823.94;6112501;23;6770;-75
2022/03/31 05:31:23;;;;;;;;;;;;;;;10.11;54.99;98820.50;6110405;23;6853;-74
2022/03/31 05:33:49;;;;;;;;;;;;;;;10.11;55.83;98819.63;6113438;23;6933;-75
2022/03/31 05:36:15;;;;;;;;;;;;;;;10.09;55.16;98822.16;6111580;23;6774;-75
2022/03/31 05:38:40;;;;;;;;;;;;;;;10.11;55.04;98820.50;6137715;23;7281;-75
2022/03/31 05:41:06;;;;;;;;;;;;;;;10.12;55.47;98816.25;6114157;23;6794;-75
2022/03/31 05:43:32;;;;;;;;;;;;;;;10.11;54.94;98819.63;6113834;23;6790;-75
2022/03/31 05:45:57;;;;;;;;;;;;;;;10.09;55.53;98819.59;6111623;23;6869;-75
2022/03/31 05:48:23;;;;;;;;;;;;;;;10.06;55.08;98818.66;6089222;23;6956;-75
2022/03/31 05:50:49;;;;;;;;;;;;;;;10.03;55.65;98819.44;6112829;23;6918;-75
2022/03/31 05:53:15;;;;;;;;;;;;;;;9.98;55.77;98819.31;6087255;23;6949;-75
2022/03/31 05:55:40;;;;;;;;;;;;;;;9.93;55.02;98828.59;6114216;23;7255;-75
2022/03/31 05:58:08;;;;;;;;;;;;;;;9.91;55.36;98825.13;6112233;23;6855;-75
2022/03/31 06:00:34;;;;;;;;;;;;;;;9.91;55.71;98832.81;6112177;23;6786;-75
2022/03/31 06:02:59;;;;;;;;;;;;;;;9.91;55.80;98825.13;6109386;23;6914;-75
2022/03/31 06:05:25;;;;;;;;;;;;;;;9.92;55.99;98831.09;6113190;23;7180;-75
2022/03/31 06:07:52;;;;;;;;;;;;;;;9.91;55.46;98835.38;6112957;23;6941;-75
2022/03/31 06:10:20;;;;;;;;;;;;;;;9.92;55.97;98833.66;6090463;23;6786;-75
2022/03/31 06:12:46;;;;;;;;;;;;;;;9.93;55.46;98837.94;6114174;23;6950;-75
2022/03/31 06:15:12;;;;;;;;;;;;;;;9.92;56.16;98847.34;6114989;23;6942;-75
2022/03/31 06:17:43;;;;;;;;;;;;;;;9.93;55.95;98837.94;6114677;23;6874;-75
2022/03/31 06:20:10;;;;;;;;;;;;;;;9.92;55.96;98836.22;6114553;23;6848;-75
2022/03/31 06:22:37;;;;;;;;;;;;;;;9.91;55.81;98829.38;6114279;23;6787;-75
2022/03/31 06:25:06;;;;;;;;;;;;;;;9.92;56.57;98828.53;6114202;23;7374;-75
2022/03/31 06:27:33;;;;;;;;;;;;;;;9.93;55.63;98831.16;6115721;23;6782;-75
2022/03/31 06:29:59;;;;;;;;;;;;;;;9.95;56.31;98837.16;6113168;23;6950;-75
2022/03/31 06:32:25;;;;;;;;;;;;;;;9.96;56.36;98835.47;6112974;23;6934;-75
2022/03/31 06:34:51;;;;;;;;;;;;;;;9.98;56.24;98838.94;6136765;23;6867;-75
2022/03/31 06:37:17;;;;;;;;;;;;;;;9.97;55.86;98837.22;6114408;23;6778;-75
2022/03/31 06:39:43;;;;;;;;;;;;;;;9.94;56.04;98835.44;6089292;23;7142;-75
2022/03/31 06:42:10;;;;;;;;;;;;;;;9.97;56.36;98834.66;6111736;23;6973;-75
2022/03/31 06:44:36;;;;;;;;;;;;;;;9.99;56.47;98839.00;6114126;23;6783;-75
2022/03/31 06:47:02;;;;;;;;;;;;;;;10.02;56.05;98838.19;6112999;23;6973;-75
2022/03/31 06:49:28;;;;;;;;;;;;;;;10.04;56.22;98841.63;6111580;23;7443;-75
2022/03/31 06:51:54;;;;;;;;;;;;;;;10.08;56.89;98845.13;6111556;23;7997;-75
2022/03/31 06:54:19;;;;;;;;;;;;;;;10.13;56.41;98841.00;6114183;23;7117;-75
2022/03/31 06:56:49;;;;;;;;;;;;;;;10.18;56.44;98833.44;6113630;23;6775;-75
2022/03/31 06:59:15;;;;;;;;;;;;;;;10.24;56.75;98842.13;6111215;23;6787;-75
2022/03/31 07:01:41;;;;;;;;;;;;;;;10.30;56.12;98838.00;6112501;23;7142;-75
2022/03/31 07:04:07;;;;;;;;;;;;;;;10.31;56.26;98843.16;6112530;23;6778;-75
2022/03/31 07:06:34;;;;;;;;;;;;;;;10.34;56.78;98839.78;6113078;23;7056;-75
2022/03/31 07:08:59;;;;;;;;;;;;;;;10.38;56.80;98837.34;6112253;23;7066;-74
2022/03/31 07:11:25;;;;;;;;;;;;;;;10.39;56.98;98841.63;6112742;23;6778;-75
2022/03/31 07:13:52;;;;;;;;;;;;;;;10.40;56.49;98843.38;6114728;23;6974;-75
2022/03/31 07:16:18;;;;;;;;;;;;;;;10.44;56.86;98843.50;6114300;23;6790;-75
2022/03/31 07:18:44;;;;;;;;;;;;;;;10.47;56.82;98841.84;6114880;23;6774;-75
2022/03/31 07:21:10;;;;;;;;;;;;;;;10.53;56.83;98841.16;6112506;23;6852;-75
2022/03/31 07:23:36;;;;;;;;;;;;;;;10.56;56.56;98848.91;6086830;23;6990;-75
2022/03/31 07:26:02;;;;;;;;;;;;;;;10.59;56.61;98851.50;6089900;23;6794;-75
2022/03/31 07:28:28;;;;;;;;;;;;;;;10.63;56.14;98847.31;6111401;23;7043;-75
2022/03/31 07:30:53;;;;;;;;;;;;;;;10.66;56.76;98843.16;6112331;23;6787;-75
2022/03/31 07:33:20;;;;;;;;;;;;;;;10.66;56.20;98835.47;6110610;23;6767;-75
2022/03/31 07:35:48;;;;;;;;;;;;;;;10.64;56.51;98841.38;6113404;23;6950;-75
2022/03/31 07:38:16;;;;;;;;;;;;;;;10.60;55.96;98837.03;6112135;23;6998;-75
2022/03/31 07:40:42;;;;;;;;;;;;;;;10.55;55.84;98852.28;6089223;23;6783;-75
2022/03/31 07:43:08;;;;;;;;;;;;;;;10.47;55.79;98846.13;6135718;23;6885;-75
2022/03/31 07:45:35;;;;;;;;;;;;;;;10.41;56.39;98846.81;6110980;23;6976;-75
2022/03/31 07:48:06;;;;;;;;;;;;;;;10.32;55.77;98850.00;6112617;23;6787;-75
2022/03/31 07:50:34;;;;;;;;;;;;;;;10.23;55.65;98844.66;6113290;23;6950;-75
2022/03/31 07:52:59;;;;;;;;;;;;;;;10.18;56.48;98838.56;6113796;23;7820;-75
2022/03/31 07:55:25;;;;;;;;;;;;;;;10.17;56.07;98841.97;6112504;23;6861;-75
2022/03/31 07:57:53;;;;;;;;;;;;;;;10.14;56.56;98842.75;6111628;23;6782;-75
2022/03/31 08:00:20;;;;;;;;;;;;;;;10.10;55.70;98838.38;6111202;23;8341;-75
2022/03/31 08:02:50;;;;;;;;;;;;;;;10.06;56.48;98840.00;6111321;23;6779;-75
2022/03/31 08:05:20;;;;;;;;;;;;;;;10.03;55.96;98839.91;6110164;23;6790;-75
2022/03/31 08:07:46;;;;;;;;;;;;;;;9.99;56.45;98844.09;6065199;23;6961;-75
2022/03/31 08:10:12;;;;;;;;;;;;;;;9.94;55.93;98844.78;6113046;23;7041;-75
2022/03/31 08:12:40;;;;;;;;;;;;;;;9.91;56.25;98839.59;6087969;23;6771;-75
2022/03/31 08:15:07;;;;;;;;;;;;;;;9.87;56.71;98841.22;6112777;23;7078;-75
2022/03/31 08:17:33;;;;;;;;;;;;;;;9.85;56.76;98841.19;6083298;23;7216;-75
2022/03/31 08:20:00;;;;;;;;;;;;;;;9.85;56.40;98836.06;6113631;23;6775;-75
2022/03/31 08:22:26;;;;;;;;;;;;;;;9.87;56.21;98843.78;6134305;23;6973;-75
2022/03/31 08:24:53;;;;;;;;;;;;;;;9.89;56.25;98848.94;6132350;23;6981;-75
2022/03/31 08:27:19;;;;;;;;;;;;;;;9.93;56.04;98837.94;6110895;23;8500;-75
2022/03/31 08:29:45;;;;;;;;;;;;;;;9.95;56.33;98842.28;6086860;23;6869;-75
2022/03/31 08:32:12;;;;;;;;;;;;;;;9.99;57.10;98833.88;6109929;23;7070;-75
2022/03/31 08:34:39;;;;;;;;;;;;;;;10.06;56.94;98841.69;6112585;23;6827;-75
2022/03/31 08:37:04;;;;;;;;;;;;;;;10.12;56.42;98840.13;6133340;23;7564;-75
2022/03/31 08:39:30;;;;;;;;;;;;;;;10.16;56.37;98845.34;6085042;23;6763;-75
2022/03/31 08:41:56;;;;;;;;;;;;;;;10.23;57.23;98844.66;6087700;23;7046;-75
2022/03/31 08:44:22;;;;;;;;;;;;;;;10.25;56.65;98845.56;6087843;23;6771;-75
2022/03/31 08:46:51;;;;;;;;;;;;;;;10.25;56.25;98840.47;6110537;23;6779;-75
2022/03/31 08:49:17;;;;;;;;;;;;;;;10.24;56.44;98843.84;6113014;23;6880;-75
2022/03/31 08:51:45;;;;;;;;;;;;;;;10.24;56.98;98844.69;6109580;23;7616;-75
2022/03/31 08:54:11;;;;;;;;;;;;;;;10.26;56.10;98849.88;6113357;23;7035;-75
2022/03/31 08:56:39;;;;;;;;;;;;;;;10.25;56.18;98846.44;6111699;23;8624;-75
2022/03/31 08:59:07;;;;;;;;;;;;;;;10.27;56.36;98851.59;6085463;23;7063;-75
2022/03/31 09:01:33;;;;;;;;;;;;;;;10.27;56.87;98851.59;6109116;23;7455;-75
2022/03/31 09:04:00;;;;;;;;;;;;;;;10.27;56.32;98856.72;6108614;23;6991;-75
2022/03/31 09:06:28;;;;;;;;;;;;;;;10.26;56.58;98850.72;6112782;23;6790;-75
2022/03/31 09:09:02;;;;;;;;;;;;;;;10.26;55.74;98860.09;6112475;23;7282;-75
2022/03/31 09:11:30;;;;;;;;;;;;;;;10.23;56.74;98858.34;6108468;23;6964;-75
2022/03/31 09:13:58;;;;;;;;;;;;;;;10.22;56.35;98860.84;6088220;23;8745;-75
2022/03/31 09:16:38;;;;;;;;;;;;;;;10.20;56.23;98863.38;6107942;23;6865;-75
2022/03/31 09:19:14;;;;;;;;;;;;;;;10.20;55.87;98855.72;6114455;23;7115;-75
2022/03/31 09:21:57;;;;;;;;;;;;;;;10.20;56.16;98857.38;6110679;23;6790;-75
2022/03/31 09:24:29;;;;;;;;;;;;;;;10.17;56.56;98859.88;6135590;23;6866;-75
2022/03/31 09:26:58;;;;;;;;;;;;;;;10.14;55.77;98863.22;6112608;23;6787;-75
2022/03/31 09:29:27;;;;;;;;;;;;;;;10.08;56.36;98857.94;6113089;23;6782;-75
2022/03/31 09:32:06;;;;;;;;;;;;;;;10.04;55.94;98872.34;6088067;23;7279;-75
2022/03/31 09:34:44;;;;;;;;;;;;;;;10.02;55.67;98868.88;6113507;23;7035;-75
2022/03/31 09:37:12;;;;;;;;;;;;;;;9.99;56.50;98871.38;6114838;23;6944;-75
2022/03/31 09:39:40;;;;;;;;;;;;;;;10.02;55.90;98862.91;6115232;23;7314;-75
2022/03/31 09:42:14;;;;;;;;;;;;;;;10.03;56.00;98870.63;6109446;23;6962;-75
2022/03/31 09:44:42;;;;;;;;;;;;;;;10.04;55.58;98867.22;6114400;23;7137;-75
2022/03/31 09:47:09;;;;;;;;;;;;;;;10.01;55.92;98864.59;6112928;23;7350;-75
2022/03/31 09:49:36;;;;;;;;;;;;;;;9.99;55.20;98866.25;6115386;23;7042;-75
2022/03/31 09:52:07;;;;;;;;;;;;;;;9.95;55.19;98867.88;6114163;23;6774;-75
2022/03/31 09:54:34;;;;;;;;;;;;;;;9.93;55.77;98868.66;6117089;23;7411;-75
2022/03/31 09:57:04;;;;;;;;;;;;;;;9.90;56.21;98866.03;6113597;23;6775;-75
2022/03/31 09:59:39;;;;;;;;;;;;;;;9.85;55.56;98871.03;6113548;23;6866;-75
2022/03/31 10:02:06;;;;;;;;;;;;;;;9.82;55.55;98871.81;6110814;23;6970;-75
2022/03/31 10:04:34;;;;;;;;;;;;;;;9.81;55.63;98869.22;6114578;23;6786;-75
2022/03/31 10:07:02;;;;;;;;;;;;;;;9.80;56.15;98877.69;6110372;23;7207;-75
2022/03/31 10:09:29;;;;;;;;;;;;;;;9.75;55.32;98872.44;6112724;23;8283;-75
2022/03/31 10:12:07;;;;;;;;;;;;;;;9.73;55.63;98881.78;6112642;23;6786;-75
2022/03/31 10:14:48;;;;;;;;;;;;;;;9.70;55.19;98881.72;6114257;23;7082;-75
2022/03/31 10:17:16;;;;;;;;;;;;;;;9.67;55.29;98884.19;6114407;23;6993;-75
2022/03/31 10:19:46;;;;;;;;;;;;;;;9.64;55.11;98878.97;6091270;23;6863;-75
2022/03/31 10:25:11;;;;;;;;;;;;;;;9.54;55.82;98877.88;6117427;23;8868;-75
2022/03/31 10:27:42;;;;;;;;;;;;;;;9.50;55.61;98884.59;6090174;23;6980;-75
2022/03/31 10:30:23;;;;;;;;;;;;;;;9.48;56.03;98880.25;6114403;23;7041;-76
2022/03/31 10:33:04;;;;;;;;;;;;;;;9.46;56.05;98885.31;6111423;23;6791;-75
2022/03/31 10:35:37;;;;;;;;;;;;;;;9.44;55.79;98889.53;6114371;23;6806;-75
2022/03/31 10:38:23;;;;;;;;;;;;;;;9.39;55.57;98884.28;6113346;23;6779;-75
2022/03/31 10:41:03;;;;;;;;;;;;;;;9.34;56.18;98884.97;6090184;23;6962;-75
2022/03/31 10:43:32;;;;;;;;;;;;;;;9.26;56.10;98885.63;6114574;23;8467;-75
2022/03/31 10:46:00;;;;;;;;;;;;;;;9.20;55.80;98875.22;6111073;23;6783;-75
2022/03/31 10:48:31;;;;;;;;;;;;;;;9.17;55.49;98891.34;6090465;23;6955;-76
2022/03/31 10:51:15;;;;;;;;;;;;;;;9.10;55.71;98883.47;6110937;23;6942;-75
2022/03/31 10:53:49;;;;;;;;;;;;;;;9.05;55.66;98895.22;6115446;23;6778;-75
2022/03/31 10:56:25;;;;;;;;;;;;;;;8.98;55.04;98887.38;6113724;23;6794;-75
2022/03/31 10:59:00;;;;;;;;;;;;;;;8.93;56.27;98893.16;6114966;23;6786;-75
2022/03/31 11:01:37;;;;;;;;;;;;;;;8.88;55.68;98891.34;6086405;23;7079;-75
2022/03/31 11:04:11;;;;;;;;;;;;;;;8.86;56.28;98889.53;6113700;23;6787;-75
2022/03/31 11:06:52;;;;;;;;;;;;;;;8.84;55.73;98886.09;6111892;23;6988;-75
2022/03/31 11:09:27;;;;;;;;;;;;;;;8.79;56.67;98885.06;6087017;23;6833;-76
2022/03/31 11:11:55;;;;;;;;;;;;;;;8.78;55.87;98884.22;6113080;23;6954;-76
2022/03/31 11:14:21;;;;;;;;;;;;;;;8.80;56.58;98879.16;6112726;23;6775;-75
2022/03/31 11:16:47;;;;;;;;;;;;;;;8.81;55.63;98878.34;6112308;23;6774;-75
2022/03/31 11:19:13;;;;;;;;;;;;;;;8.83;56.45;98874.13;6114493;23;6977;-75
2022/03/31 11:21:45;;;;;;;;;;;;;;;8.86;57.34;98871.66;6112354;23;6783;-75
2022/03/31 11:24:11;;;;;;;;;;;;;;;8.92;56.91;98870.97;6089596;23;6779;-75
2022/03/31 11:26:41;;;;;;;;;;;;;;;8.98;56.94;98871.16;6112896;23;7380;-75
2022/03/31 11:29:12;;;;;;;;;;;;;;;9.01;55.89;98864.47;6112966;23;7119;-75
2022/03/31 11:31:45;;;;;;;;;;;;;;;9.02;56.85;98866.19;6086669;23;6786;-75
2022/03/31 11:34:25;;;;;;;;;;;;;;;9.07;56.76;98866.34;6113271;23;7696;-75
2022/03/31 11:36:53;;;;;;;;;;;;;;;9.08;57.13;98865.50;6113168;23;6794;-75
2022/03/31 11:39:24;;;;;;;;;;;;;;;9.06;56.79;98866.28;6088000;23;6951;-75
2022/03/31 11:41:50;;;;;;;;;;;;;;;9.10;56.70;98865.56;6113538;23;6948;-75
2022/03/31 11:44:16;;;;;;;;;;;;;;;9.13;56.23;98863.97;6113572;23;6868;-75
2022/03/31 11:46:49;;;;;;;;;;;;;;;9.17;56.84;98863.22;6113192;23;7120;-75
2022/03/31 11:49:20;;;;;;;;;;;;;;;9.17;56.23;98860.66;6114173;23;6787;-75
2022/03/31 11:51:52;;;;;;;;;;;;;;;9.20;56.24;98862.44;6088078;23;7332;-75
2022/03/31 11:54:19;;;;;;;;;;;;;;;9.24;56.37;98860.84;6113725;23;6783;-75
2022/03/31 11:56:45;;;;;;;;;;;;;;;9.26;56.20;98860.03;6089576;23;7351;-75
2022/03/31 11:59:12;;;;;;;;;;;;;;;9.25;56.02;98867.69;6113385;23;8381;-75
2022/03/31 12:01:43;;;;;;;;;;;;;;;9.21;56.29;98863.28;6112840;23;7145;-75
2022/03/31 12:04:24;;;;;;;;;;;;;;;9.16;55.73;98858.06;6114457;23;6938;-75
2022/03/31 12:06:59;;;;;;;;;;;;;;;9.13;56.53;98857.97;6112326;23;7026;-75
2022/03/31 12:09:26;;;;;;;;;;;;;;;9.14;56.91;98859.72;6088060;23;6994;-75
2022/03/31 12:11:54;;;;;;;;;;;;;;;9.15;56.54;98859.75;6112772;23;8508;-75
2022/03/31 12:14:20;;;;;;;;;;;;;;;9.16;56.88;98864.03;6109203;23;6826;-75
2022/03/31 12:16:50;;;;;;;;;;;;;;;9.19;56.36;98870.06;6112094;23;6888;-75
2022/03/31 12:19:17;;;;;;;;;;;;;;;9.14;56.66;98859.72;6089996;23;7037;-75
2022/03/31 12:21:49;;;;;;;;;;;;;;;9.13;56.39;98868.19;6111910;23;7078;-75
2022/03/31 12:24:15;;;;;;;;;;;;;;;9.13;56.19;98868.19;6112693;23;6782;-75
2022/03/31 12:27:03;;;;;;;;;;;;;;;9.11;55.73;98865.59;6110328;23;7091;-76
2022/03/31 12:29:32;;;;;;;;;;;;;;;9.06;56.88;98872.28;6111737;23;6859;-76
2022/03/31 12:32:09;;;;;;;;;;;;;;;9.03;55.75;98872.19;6104570;23;6959;-76
2022/03/31 12:34:39;;;;;;;;;;;;;;;8.98;56.47;98874.59;6111662;23;7097;-75
2022/03/31 12:37:06;;;;;;;;;;;;;;;8.94;56.54;98869.34;6111937;23;6850;-75
2022/03/31 12:39:43;;;;;;;;;;;;;;;8.92;56.69;98873.53;6086279;23;7187;-75
2022/03/31 12:42:10;;;;;;;;;;;;;;;8.87;55.60;98869.16;6108611;23;7102;-75
2022/03/31 12:44:41;;;;;;;;;;;;;;;8.83;56.03;98874.97;6108134;23;6863;-75
2022/03/31 12:47:10;;;;;;;;;;;;;;;8.79;56.09;98879.94;6083890;23;6947;-75
2022/03/31 12:49:40;;;;;;;;;;;;;;;8.73;55.71;98873.84;6086772;23;6869;-75
2022/03/31 12:52:16;;;;;;;;;;;;;;;8.70;56.86;98873.75;6084837;23;6775;-75
2022/03/31 12:54:53;;;;;;;;;;;;;;;8.67;56.70;98878.75;6110369;23;6782;-75
2022/03/31 12:57:28;;;;;;;;;;;;;;;8.67;56.50;98878.75;6110716;23;6827;-75
2022/03/31 12:59:56;;;;;;;;;;;;;;;8.68;56.10;98874.53;6109510;23;6858;-76
2022/03/31 13:02:22;;;;;;;;;;;;;;;8.68;56.55;98879.63;6103235;23;7342;-76
2022/03/31 13:04:47;;;;;;;;;;;;;;;8.66;56.89;98861.69;6111644;23;6990;-75
2022/03/31 13:07:18;;;;;;;;;;;;;;;8.68;57.57;98870.28;6107517;23;7175;-76